sensor_id;sensor_type;location;lat;lon;timestamp;P1;durP1;ratioP1;P2;durP2;ratioP2
44204;SDS011;30163;42.698;23.344;2023-04-15T00:00:46;33.13;;;13.52;;
44204;SDS011;30163;42.698;23.344;2023-04-15T00:03:11;25.25;;;12.30;;
44204;SDS011;30163;42.698;23.344;2023-04-15T00:05:37;23.67;;;12.27;;
44204;SDS011;30163;42.698;23.344;2023-04-15T00:08:03;25.58;;;12.63;;
44204;SDS011;30163;42.698;23.344;2023-04-15T00:10:31;27.45;;;12.23;;
44204;SDS011;30163;42.698;23.344;2023-04-15T00:12:59;21.92;;;10.52;;
44204;SDS011;30163;42.698;23.344;2023-04-15T00:15:28;25.75;;;11.45;;
44204;SDS011;30163;42.698;23.344;2023-04-15T00:17:54;25.38;;;11.30;;
44204;SDS011;30163;42.698;23.344;2023-04-15T00:20:22;21.90;;;11.45;;
44204;SDS011;30163;42.698;23.344;2023-04-15T00:22:50;30.38;;;11.65;;
44204;SDS011;30163;42.698;23.344;2023-04-15T00:25:16;27.85;;;12.88;;
44204;SDS011;30163;42.698;23.344;2023-04-15T00:27:42;22.77;;;12.30;;
44204;SDS011;30163;42.698;23.344;2023-04-15T00:30:12;25.63;;;12.07;;
44204;SDS011;30163;42.698;23.344;2023-04-15T00:32:42;27.60;;;13.02;;
44204;SDS011;30163;42.698;23.344;2023-04-15T00:35:18;25.25;;;11.45;;
44204;SDS011;30163;42.698;23.344;2023-04-15T00:37:44;22.60;;;11.07;;
44204;SDS011;30163;42.698;23.344;2023-04-15T00:40:16;24.45;;;12.63;;
44204;SDS011;30163;42.698;23.344;2023-04-15T00:42:46;27.58;;;11.80;;
44204;SDS011;30163;42.698;23.344;2023-04-15T00:45:12;27.60;;;11.10;;
44204;SDS011;30163;42.698;23.344;2023-04-15T00:47:43;29.90;;;11.73;;
44204;SDS011;30163;42.698;23.344;2023-04-15T00:50:11;27.25;;;11.23;;
44204;SDS011;30163;42.698;23.344;2023-04-15T00:52:37;26.25;;;11.18;;
44204;SDS011;30163;42.698;23.344;2023-04-15T00:55:03;28.77;;;11.70;;
44204;SDS011;30163;42.698;23.344;2023-04-15T00:57:29;25.17;;;12.00;;
44204;SDS011;30163;42.698;23.344;2023-04-15T01:00:02;26.35;;;10.85;;
44204;SDS011;30163;42.698;23.344;2023-04-15T01:02:34;27.45;;;11.07;;
44204;SDS011;30163;42.698;23.344;2023-04-15T01:05:03;23.05;;;11.15;;
44204;SDS011;30163;42.698;23.344;2023-04-15T01:07:32;28.45;;;11.75;;
44204;SDS011;30163;42.698;23.344;2023-04-15T01:10:02;29.25;;;13.23;;
44204;SDS011;30163;42.698;23.344;2023-04-15T01:12:32;31.38;;;13.00;;
44204;SDS011;30163;42.698;23.344;2023-04-15T01:15:01;26.60;;;11.98;;
44204;SDS011;30163;42.698;23.344;2023-04-15T01:17:28;26.65;;;11.73;;
44204;SDS011;30163;42.698;23.344;2023-04-15T01:22:49;22.73;;;12.35;;
44204;SDS011;30163;42.698;23.344;2023-04-15T01:25:17;25.52;;;12.43;;
44204;SDS011;30163;42.698;23.344;2023-04-15T01:27:46;24.77;;;9.32;;
44204;SDS011;30163;42.698;23.344;2023-04-15T01:30:17;13.05;;;6.78;;
44204;SDS011;30163;42.698;23.344;2023-04-15T01:32:45;24.38;;;9.82;;
44204;SDS011;30163;42.698;23.344;2023-04-15T01:35:14;20.70;;;9.80;;
44204;SDS011;30163;42.698;23.344;2023-04-15T01:37:42;23.05;;;9.88;;
44204;SDS011;30163;42.698;23.344;2023-04-15T01:42:56;22.42;;;9.25;;
44204;SDS011;30163;42.698;23.344;2023-04-15T01:45:25;18.85;;;8.02;;
44204;SDS011;30163;42.698;23.344;2023-04-15T01:47:58;17.45;;;7.43;;
44204;SDS011;30163;42.698;23.344;2023-04-15T01:50:27;14.20;;;7.40;;
44204;SDS011;30163;42.698;23.344;2023-04-15T01:52:54;18.35;;;6.90;;
44204;SDS011;30163;42.698;23.344;2023-04-15T01:55:26;18.67;;;7.80;;
44204;SDS011;30163;42.698;23.344;2023-04-15T01:57:57;16.92;;;8.38;;
44204;SDS011;30163;42.698;23.344;2023-04-15T02:00:32;21.58;;;8.13;;
44204;SDS011;30163;42.698;23.344;2023-04-15T02:03:03;25.88;;;11.10;;
44204;SDS011;30163;42.698;23.344;2023-04-15T02:05:33;31.55;;;12.07;;
44204;SDS011;30163;42.698;23.344;2023-04-15T02:08:17;29.90;;;12.23;;
44204;SDS011;30163;42.698;23.344;2023-04-15T02:11:13;29.80;;;12.55;;
44204;SDS011;30163;42.698;23.344;2023-04-15T02:21:57;27.85;;;11.38;;
44204;SDS011;30163;42.698;23.344;2023-04-15T02:24:26;25.77;;;11.57;;
44204;SDS011;30163;42.698;23.344;2023-04-15T02:26:54;20.33;;;10.77;;
44204;SDS011;30163;42.698;23.344;2023-04-15T02:29:20;26.23;;;11.77;;
44204;SDS011;30163;42.698;23.344;2023-04-15T02:31:47;25.30;;;9.50;;
44204;SDS011;30163;42.698;23.344;2023-04-15T02:34:15;26.30;;;10.43;;
44204;SDS011;30163;42.698;23.344;2023-04-15T02:36:54;23.15;;;10.70;;
44204;SDS011;30163;42.698;23.344;2023-04-15T02:39:25;36.45;;;14.52;;
44204;SDS011;30163;42.698;23.344;2023-04-15T02:42:01;36.38;;;14.38;;
44204;SDS011;30163;42.698;23.344;2023-04-15T02:44:31;30.02;;;14.07;;
44204;SDS011;30163;42.698;23.344;2023-04-15T02:47:01;36.03;;;15.32;;
44204;SDS011;30163;42.698;23.344;2023-04-15T02:49:35;27.52;;;13.48;;
44204;SDS011;30163;42.698;23.344;2023-04-15T02:52:17;31.50;;;15.53;;
44204;SDS011;30163;42.698;23.344;2023-04-15T02:55:08;36.85;;;15.43;;
44204;SDS011;30163;42.698;23.344;2023-04-15T02:57:57;27.60;;;12.93;;
44204;SDS011;30163;42.698;23.344;2023-04-15T03:00:39;32.97;;;15.27;;
44204;SDS011;30163;42.698;23.344;2023-04-15T03:03:05;31.08;;;14.13;;
44204;SDS011;30163;42.698;23.344;2023-04-15T03:05:33;24.90;;;12.02;;
44204;SDS011;30163;42.698;23.344;2023-04-15T03:08:01;30.90;;;12.38;;
44204;SDS011;30163;42.698;23.344;2023-04-15T03:10:28;27.15;;;12.25;;
44204;SDS011;30163;42.698;23.344;2023-04-15T03:12:54;27.58;;;11.77;;
44204;SDS011;30163;42.698;23.344;2023-04-15T03:15:19;23.35;;;10.57;;
44204;SDS011;30163;42.698;23.344;2023-04-15T03:17:45;28.88;;;9.88;;
44204;SDS011;30163;42.698;23.344;2023-04-15T03:20:13;16.40;;;8.18;;
44204;SDS011;30163;42.698;23.344;2023-04-15T03:22:39;22.45;;;8.02;;
44204;SDS011;30163;42.698;23.344;2023-04-15T03:25:05;23.33;;;8.68;;
44204;SDS011;30163;42.698;23.344;2023-04-15T03:27:30;14.95;;;8.35;;
44204;SDS011;30163;42.698;23.344;2023-04-15T03:29:59;19.95;;;7.68;;
44204;SDS011;30163;42.698;23.344;2023-04-15T03:32:28;17.95;;;8.40;;
44204;SDS011;30163;42.698;23.344;2023-04-15T03:34:53;18.75;;;7.80;;
44204;SDS011;30163;42.698;23.344;2023-04-15T03:37:25;15.70;;;7.38;;
44204;SDS011;30163;42.698;23.344;2023-04-15T03:39:51;17.65;;;7.45;;
44204;SDS011;30163;42.698;23.344;2023-04-15T03:42:20;19.00;;;9.00;;
44204;SDS011;30163;42.698;23.344;2023-04-15T03:44:45;20.85;;;8.93;;
44204;SDS011;30163;42.698;23.344;2023-04-15T03:47:14;19.75;;;8.35;;
44204;SDS011;30163;42.698;23.344;2023-04-15T03:49:42;20.05;;;8.95;;
44204;SDS011;30163;42.698;23.344;2023-04-15T03:52:08;24.27;;;8.75;;
44204;SDS011;30163;42.698;23.344;2023-04-15T04:18:01;21.52;;;9.00;;
44204;SDS011;30163;42.698;23.344;2023-04-15T04:23:03;24.27;;;7.45;;
44204;SDS011;30163;42.698;23.344;2023-04-15T04:25:31;24.48;;;8.05;;
44204;SDS011;30163;42.698;23.344;2023-04-15T04:28:00;15.05;;;7.75;;
44204;SDS011;30163;42.698;23.344;2023-04-15T04:30:26;14.82;;;7.55;;
44204;SDS011;30163;42.698;23.344;2023-04-15T04:32:51;15.43;;;7.13;;
44204;SDS011;30163;42.698;23.344;2023-04-15T04:35:21;15.93;;;8.43;;
44204;SDS011;30163;42.698;23.344;2023-04-15T04:37:49;27.88;;;9.95;;
44204;SDS011;30163;42.698;23.344;2023-04-15T04:40:16;34.50;;;9.85;;
44204;SDS011;30163;42.698;23.344;2023-04-15T04:42:41;25.23;;;9.73;;
44204;SDS011;30163;42.698;23.344;2023-04-15T04:45:07;25.80;;;11.25;;
44204;SDS011;30163;42.698;23.344;2023-04-15T04:47:33;27.98;;;10.93;;
44204;SDS011;30163;42.698;23.344;2023-04-15T04:49:58;26.25;;;10.75;;
44204;SDS011;30163;42.698;23.344;2023-04-15T04:52:23;22.67;;;10.93;;
44204;SDS011;30163;42.698;23.344;2023-04-15T04:54:49;35.85;;;12.23;;
44204;SDS011;30163;42.698;23.344;2023-04-15T04:57:16;27.23;;;11.75;;
44204;SDS011;30163;42.698;23.344;2023-04-15T04:59:43;31.73;;;13.80;;
44204;SDS011;30163;42.698;23.344;2023-04-15T05:02:28;32.25;;;14.48;;
44204;SDS011;30163;42.698;23.344;2023-04-15T05:04:54;28.75;;;15.50;;
44204;SDS011;30163;42.698;23.344;2023-04-15T05:07:20;49.72;;;15.90;;
44204;SDS011;30163;42.698;23.344;2023-04-15T05:09:55;34.65;;;16.42;;
44204;SDS011;30163;42.698;23.344;2023-04-15T05:12:26;28.67;;;14.07;;
44204;SDS011;30163;42.698;23.344;2023-04-15T05:14:52;34.55;;;14.55;;
44204;SDS011;30163;42.698;23.344;2023-04-15T05:17:26;31.33;;;15.05;;
44204;SDS011;30163;42.698;23.344;2023-04-15T05:19:52;32.75;;;15.27;;
44204;SDS011;30163;42.698;23.344;2023-04-15T05:22:23;33.80;;;15.32;;
44204;SDS011;30163;42.698;23.344;2023-04-15T05:24:48;34.13;;;15.75;;
44204;SDS011;30163;42.698;23.344;2023-04-15T05:27:17;29.33;;;14.07;;
44204;SDS011;30163;42.698;23.344;2023-04-15T05:29:43;34.05;;;15.10;;
44204;SDS011;30163;42.698;23.344;2023-04-15T05:32:09;26.52;;;11.30;;
44204;SDS011;30163;42.698;23.344;2023-04-15T05:34:38;24.75;;;10.80;;
44204;SDS011;30163;42.698;23.344;2023-04-15T05:37:12;26.90;;;10.15;;
44204;SDS011;30163;42.698;23.344;2023-04-15T05:39:45;26.50;;;12.77;;
44204;SDS011;30163;42.698;23.344;2023-04-15T05:42:10;21.50;;;12.75;;
44204;SDS011;30163;42.698;23.344;2023-04-15T05:44:43;22.75;;;10.18;;
44204;SDS011;30163;42.698;23.344;2023-04-15T05:47:14;21.85;;;11.07;;
44204;SDS011;30163;42.698;23.344;2023-04-15T05:49:42;21.27;;;9.57;;
44204;SDS011;30163;42.698;23.344;2023-04-15T05:52:08;27.88;;;12.05;;
44204;SDS011;30163;42.698;23.344;2023-04-15T05:54:35;25.38;;;10.65;;
44204;SDS011;30163;42.698;23.344;2023-04-15T05:57:03;15.77;;;6.10;;
44204;SDS011;30163;42.698;23.344;2023-04-15T05:59:37;11.82;;;6.28;;
44204;SDS011;30163;42.698;23.344;2023-04-15T06:02:03;12.68;;;6.10;;
44204;SDS011;30163;42.698;23.344;2023-04-15T06:04:30;30.48;;;7.60;;
44204;SDS011;30163;42.698;23.344;2023-04-15T06:07:00;21.20;;;7.40;;
44204;SDS011;30163;42.698;23.344;2023-04-15T06:09:46;16.15;;;6.40;;
44204;SDS011;30163;42.698;23.344;2023-04-15T06:12:17;12.05;;;6.00;;
44204;SDS011;30163;42.698;23.344;2023-04-15T06:14:50;10.73;;;5.57;;
44204;SDS011;30163;42.698;23.344;2023-04-15T06:17:25;14.25;;;7.40;;
44204;SDS011;30163;42.698;23.344;2023-04-15T06:19:51;19.73;;;9.23;;
44204;SDS011;30163;42.698;23.344;2023-04-15T06:22:22;23.45;;;10.23;;
44204;SDS011;30163;42.698;23.344;2023-04-15T06:24:50;25.15;;;13.15;;
44204;SDS011;30163;42.698;23.344;2023-04-15T06:27:16;26.55;;;13.35;;
44204;SDS011;30163;42.698;23.344;2023-04-15T06:29:41;27.13;;;13.32;;
44204;SDS011;30163;42.698;23.344;2023-04-15T06:32:09;27.67;;;13.15;;
44204;SDS011;30163;42.698;23.344;2023-04-15T06:34:35;24.00;;;12.73;;
44204;SDS011;30163;42.698;23.344;2023-04-15T06:37:00;37.92;;;11.88;;
44204;SDS011;30163;42.698;23.344;2023-04-15T06:39:26;28.45;;;10.80;;
44204;SDS011;30163;42.698;23.344;2023-04-15T06:41:54;20.90;;;10.48;;
44204;SDS011;30163;42.698;23.344;2023-04-15T06:44:20;22.80;;;10.55;;
44204;SDS011;30163;42.698;23.344;2023-04-15T06:46:46;23.42;;;11.57;;
44204;SDS011;30163;42.698;23.344;2023-04-15T06:49:11;25.00;;;10.38;;
44204;SDS011;30163;42.698;23.344;2023-04-15T06:51:37;22.67;;;9.82;;
44204;SDS011;30163;42.698;23.344;2023-04-15T06:54:03;17.50;;;8.57;;
44204;SDS011;30163;42.698;23.344;2023-04-15T06:56:33;23.92;;;10.02;;
44204;SDS011;30163;42.698;23.344;2023-04-15T06:58:59;19.98;;;9.90;;
44204;SDS011;30163;42.698;23.344;2023-04-15T07:01:24;22.08;;;10.23;;
44204;SDS011;30163;42.698;23.344;2023-04-15T07:03:50;18.63;;;8.57;;
44204;SDS011;30163;42.698;23.344;2023-04-15T07:06:16;18.27;;;9.38;;
44204;SDS011;30163;42.698;23.344;2023-04-15T07:08:41;21.63;;;8.98;;
44204;SDS011;30163;42.698;23.344;2023-04-15T07:11:07;15.13;;;8.43;;
44204;SDS011;30163;42.698;23.344;2023-04-15T07:13:33;21.35;;;9.18;;
44204;SDS011;30163;42.698;23.344;2023-04-15T07:15:58;15.88;;;8.00;;
44204;SDS011;30163;42.698;23.344;2023-04-15T07:18:24;15.73;;;7.65;;
44204;SDS011;30163;42.698;23.344;2023-04-15T07:20:50;24.15;;;8.10;;
44204;SDS011;30163;42.698;23.344;2023-04-15T07:23:18;15.95;;;7.25;;
44204;SDS011;30163;42.698;23.344;2023-04-15T07:25:43;17.63;;;6.90;;
44204;SDS011;30163;42.698;23.344;2023-04-15T07:28:09;24.48;;;6.90;;
44204;SDS011;30163;42.698;23.344;2023-04-15T07:30:34;15.98;;;6.95;;
44204;SDS011;30163;42.698;23.344;2023-04-15T07:33:00;13.27;;;6.55;;
44204;SDS011;30163;42.698;23.344;2023-04-15T07:35:35;20.08;;;6.43;;
44204;SDS011;30163;42.698;23.344;2023-04-15T07:38:01;14.68;;;7.00;;
44204;SDS011;30163;42.698;23.344;2023-04-15T07:40:27;15.73;;;7.25;;
44204;SDS011;30163;42.698;23.344;2023-04-15T07:42:53;19.52;;;6.47;;
44204;SDS011;30163;42.698;23.344;2023-04-15T07:45:22;18.83;;;7.35;;
44204;SDS011;30163;42.698;23.344;2023-04-15T07:47:48;17.85;;;7.15;;
44204;SDS011;30163;42.698;23.344;2023-04-15T07:50:16;13.38;;;6.05;;
44204;SDS011;30163;42.698;23.344;2023-04-15T07:52:47;15.80;;;7.35;;
44204;SDS011;30163;42.698;23.344;2023-04-15T07:55:15;18.08;;;6.97;;
44204;SDS011;30163;42.698;23.344;2023-04-15T07:57:54;12.05;;;6.95;;
44204;SDS011;30163;42.698;23.344;2023-04-15T08:00:25;17.10;;;5.93;;
44204;SDS011;30163;42.698;23.344;2023-04-15T08:02:53;15.50;;;6.65;;
44204;SDS011;30163;42.698;23.344;2023-04-15T08:05:24;13.57;;;5.95;;
44204;SDS011;30163;42.698;23.344;2023-04-15T08:08:01;15.52;;;6.28;;
44204;SDS011;30163;42.698;23.344;2023-04-15T08:10:29;12.90;;;6.57;;
44204;SDS011;30163;42.698;23.344;2023-04-15T08:12:57;13.27;;;6.05;;
44204;SDS011;30163;42.698;23.344;2023-04-15T08:15:28;21.67;;;6.28;;
44204;SDS011;30163;42.698;23.344;2023-04-15T08:17:58;12.77;;;5.50;;
44204;SDS011;30163;42.698;23.344;2023-04-15T08:20:35;10.95;;;6.00;;
44204;SDS011;30163;42.698;23.344;2023-04-15T08:23:16;14.77;;;6.30;;
44204;SDS011;30163;42.698;23.344;2023-04-15T08:25:49;18.02;;;6.30;;
44204;SDS011;30163;42.698;23.344;2023-04-15T08:31:15;13.63;;;5.43;;
44204;SDS011;30163;42.698;23.344;2023-04-15T08:33:50;16.25;;;5.40;;
44204;SDS011;30163;42.698;23.344;2023-04-15T08:36:19;15.52;;;5.28;;
44204;SDS011;30163;42.698;23.344;2023-04-15T08:38:51;11.02;;;5.70;;
44204;SDS011;30163;42.698;23.344;2023-04-15T08:41:24;17.38;;;5.43;;
44204;SDS011;30163;42.698;23.344;2023-04-15T08:43:57;17.13;;;5.80;;
44204;SDS011;30163;42.698;23.344;2023-04-15T08:46:29;13.77;;;5.85;;
44204;SDS011;30163;42.698;23.344;2023-04-15T08:48:58;12.55;;;5.82;;
44204;SDS011;30163;42.698;23.344;2023-04-15T08:54:04;14.65;;;5.28;;
44204;SDS011;30163;42.698;23.344;2023-04-15T08:56:37;11.52;;;5.40;;
44204;SDS011;30163;42.698;23.344;2023-04-15T09:01:54;9.75;;;4.80;;
44204;SDS011;30163;42.698;23.344;2023-04-15T09:04:37;10.32;;;4.90;;
44204;SDS011;30163;42.698;23.344;2023-04-15T09:07:08;10.95;;;4.60;;
44204;SDS011;30163;42.698;23.344;2023-04-15T09:09:56;6.97;;;3.13;;
44204;SDS011;30163;42.698;23.344;2023-04-15T09:12:34;9.90;;;3.83;;
44204;SDS011;30163;42.698;23.344;2023-04-15T09:15:01;12.73;;;4.68;;
44204;SDS011;30163;42.698;23.344;2023-04-15T09:17:27;12.00;;;3.80;;
44204;SDS011;30163;42.698;23.344;2023-04-15T09:20:15;11.85;;;3.70;;
44204;SDS011;30163;42.698;23.344;2023-04-15T09:22:43;10.52;;;3.45;;
